Terminal Aerodrome Forecast
Issued by NWS Portland, OR

Home | Current Version | Previous Version | Text Only | Print | Product List | Glossary On
Versions: 1 2 3 4 5 6 7 8 9 10 11 12 13 14 15 16 17 18 19 20 21 22 23
000
FTUS46 KPQR 281126
TAFEUG
TAF
KEUG 281126Z 2812/2912 18006KT P6SM -RA SCT030 BKN045 OVC060
     FM282200 VRB04KT P6SM SCT030 BKN045 OVC060
      TEMPO 2822/2902 -RA
     FM290800 15004KT P6SM -RA BKN040 OVC060=

USA.gov is the U.S. government's official web portal to all federal, state and local government web resources and services.